createdAt,value
2018-06-29T00:00:58.046Z,9.97
2018-06-29T00:03:30.223Z,10.00
2018-06-29T00:06:02.534Z,10.23
2018-06-29T00:08:34.830Z,9.93
2018-06-29T00:11:07.761Z,9.57
2018-06-29T00:13:40.721Z,10.00
2018-06-29T00:16:13.495Z,9.43
2018-06-29T00:18:46.590Z,9.87
2018-06-29T00:21:19.659Z,9.73
2018-06-29T00:23:57.291Z,9.40
2018-06-29T00:26:30.260Z,11.47
2018-06-29T00:29:02.618Z,11.33
2018-06-29T00:31:36.697Z,10.50
2018-06-29T00:34:14.179Z,10.83
2018-06-29T00:36:48.762Z,11.80
2018-06-29T00:39:22.769Z,11.67
2018-06-29T00:41:55.088Z,10.90
2018-06-29T00:44:28.455Z,10.17
2018-06-29T00:47:04.224Z,13.00
2018-06-29T00:49:37.055Z,12.80
2018-06-29T00:52:13.900Z,9.93
2018-06-29T00:54:48.659Z,13.70
2018-06-29T00:57:21.899Z,10.63
2018-06-29T00:59:57.632Z,10.53
2018-06-29T01:02:30.490Z,10.90
2018-06-29T01:05:07.421Z,11.17
2018-06-29T01:07:40.391Z,11.93
2018-06-29T01:10:14.703Z,12.57
2018-06-29T01:12:53.826Z,11.37
2018-06-29T01:15:31.717Z,12.73
2018-06-29T01:18:04.501Z,11.63
2018-06-29T01:20:40.394Z,11.63
2018-06-29T01:23:15.953Z,13.10
2018-06-29T01:25:53.503Z,12.90
2018-06-29T01:28:25.819Z,13.30
2018-06-29T01:31:02.979Z,11.77
2018-06-29T01:33:37.423Z,12.80
2018-06-29T01:36:11.223Z,10.50
2018-06-29T01:38:45.725Z,11.67
2018-06-29T01:41:18.543Z,11.60
2018-06-29T01:43:54.824Z,10.90
2018-06-29T01:46:33.329Z,11.63
2018-06-29T01:49:06.578Z,12.67
2018-06-29T01:51:38.951Z,11.87
2018-06-29T01:54:11.551Z,12.20
2018-06-29T01:56:45.111Z,12.00
2018-06-29T01:59:21.729Z,12.30
2018-06-29T02:01:54.293Z,11.23
2018-06-29T02:04:27.690Z,13.10
2018-06-29T02:07:02.306Z,12.87
2018-06-29T02:09:35.576Z,11.13
2018-06-29T02:12:11.183Z,11.93
2018-06-29T02:14:44.459Z,11.30
2018-06-29T02:17:19.433Z,23.13
2018-06-29T02:19:51.790Z,11.40
2018-06-29T02:22:27.930Z,11.90
2018-06-29T02:25:01.891Z,14.70
2018-06-29T02:27:34.194Z,10.60
2018-06-29T02:30:09.796Z,11.50
2018-06-29T02:35:27.281Z,11.37
2018-06-29T02:38:03.292Z,11.13
2018-06-29T02:40:37.933Z,12.10
2018-06-29T02:43:12.143Z,11.67
2018-06-29T02:45:47.276Z,11.30
2018-06-29T02:48:20.799Z,11.23
2018-06-29T02:50:56.345Z,11.57
2018-06-29T02:53:28.610Z,12.43
2018-06-29T02:56:00.771Z,14.63
2018-06-29T02:58:37.702Z,10.63
2018-06-29T03:01:10.635Z,11.60
2018-06-29T03:03:43.721Z,10.73
2018-06-29T03:06:17.676Z,10.77
2018-06-29T03:08:52.813Z,10.83
2018-06-29T03:11:26.297Z,11.43
2018-06-29T03:13:58.839Z,11.23
2018-06-29T03:16:34.338Z,11.40
2018-06-29T03:19:07.505Z,11.90
2018-06-29T03:21:41.540Z,11.13
2018-06-29T03:24:16.356Z,11.70
2018-06-29T03:26:48.653Z,11.20
2018-06-29T03:29:23.339Z,11.73
2018-06-29T03:31:58.757Z,11.70
2018-06-29T03:34:33.165Z,11.43
2018-06-29T03:37:08.816Z,13.20
2018-06-29T03:39:45.596Z,12.50
2018-06-29T03:42:18.700Z,12.97
2018-06-29T03:44:53.799Z,13.37
2018-06-29T03:47:25.826Z,13.03
2018-06-29T03:49:57.787Z,12.37
2018-06-29T03:52:29.743Z,12.07
2018-06-29T03:55:01.764Z,13.30
2018-06-29T03:57:33.744Z,12.90
2018-06-29T04:00:05.742Z,13.30
2018-06-29T04:02:37.928Z,12.17
2018-06-29T04:05:09.899Z,11.60
2018-06-29T04:07:41.867Z,12.90
2018-06-29T04:10:13.904Z,12.50
2018-06-29T04:12:45.900Z,12.80
2018-06-29T04:15:17.859Z,13.20
2018-06-29T04:17:49.795Z,11.13
2018-06-29T04:20:21.755Z,11.50
2018-06-29T04:22:53.774Z,11.87
2018-06-29T04:25:25.768Z,12.33
2018-06-29T04:27:57.755Z,12.03
2018-06-29T04:30:29.860Z,10.70
2018-06-29T04:33:01.829Z,12.43
2018-06-29T04:35:33.819Z,11.13
2018-06-29T04:38:05.824Z,12.37
2018-06-29T04:40:37.795Z,12.40
2018-06-29T04:43:09.775Z,11.03
2018-06-29T04:45:41.859Z,12.40
2018-06-29T04:48:13.893Z,10.80
2018-06-29T04:50:45.873Z,11.70
2018-06-29T04:53:17.866Z,11.87
2018-06-29T04:55:49.820Z,11.60
2018-06-29T04:58:21.836Z,10.70
2018-06-29T05:00:53.913Z,10.10
2018-06-29T05:03:25.804Z,10.23
2018-06-29T05:05:57.805Z,9.70
2018-06-29T05:08:29.760Z,10.20
2018-06-29T05:11:01.767Z,9.73
2018-06-29T05:13:33.799Z,10.43
2018-06-29T05:16:05.771Z,10.10
2018-06-29T05:18:37.734Z,11.53
2018-06-29T05:21:09.714Z,10.47
2018-06-29T05:23:41.675Z,10.53
2018-06-29T05:26:13.634Z,10.77
2018-06-29T05:28:45.695Z,10.90
2018-06-29T05:31:17.686Z,11.97
2018-06-29T05:33:49.643Z,10.13
2018-06-29T05:36:21.626Z,10.53
2018-06-29T05:38:53.579Z,9.70
2018-06-29T05:41:25.607Z,12.30
2018-06-29T05:43:57.569Z,9.80
2018-06-29T05:46:29.545Z,10.67
2018-06-29T05:49:01.569Z,10.00
2018-06-29T05:51:33.570Z,10.00
2018-06-29T05:54:05.712Z,10.00
2018-06-29T05:56:37.684Z,10.30
2018-06-29T05:59:09.675Z,10.27
2018-06-29T06:01:41.725Z,10.00
2018-06-29T06:04:13.709Z,10.57
2018-06-29T06:06:45.723Z,11.10
2018-06-29T06:09:17.739Z,10.40
2018-06-29T06:11:49.735Z,10.40
2018-06-29T06:14:21.718Z,10.27
2018-06-29T06:16:53.686Z,11.50
2018-06-29T06:19:37.179Z,10.70
2018-06-29T06:22:15.927Z,10.23
2018-06-29T06:24:47.887Z,12.03
2018-06-29T06:27:19.898Z,11.20
2018-06-29T06:29:51.858Z,11.27
2018-06-29T06:32:24.255Z,12.13
2018-06-29T06:34:56.306Z,12.37
2018-06-29T06:37:28.376Z,11.50
2018-06-29T06:40:00.446Z,12.27
2018-06-29T06:42:32.474Z,11.30
2018-06-29T06:45:05.099Z,11.00
2018-06-29T06:47:37.120Z,11.87
2018-06-29T06:50:09.115Z,10.73
2018-06-29T06:52:41.108Z,11.80
2018-06-29T06:55:13.100Z,11.60
2018-06-29T06:57:45.082Z,10.70
2018-06-29T07:00:17.063Z,10.57
2018-06-29T07:02:49.041Z,10.63
2018-06-29T07:05:21.017Z,9.80
2018-06-29T07:07:52.992Z,11.70
2018-06-29T07:10:24.994Z,9.83
2018-06-29T07:12:57.048Z,10.50
2018-06-29T07:15:29.125Z,8.47
2018-06-29T07:18:01.188Z,9.53
2018-06-29T07:20:33.361Z,9.03
2018-06-29T07:23:05.466Z,8.63
2018-06-29T07:25:37.474Z,10.07
2018-06-29T07:28:09.563Z,8.23
2018-06-29T07:30:41.552Z,9.13
2018-06-29T07:33:13.546Z,9.50
2018-06-29T07:35:45.528Z,9.30
2018-06-29T07:38:17.848Z,9.37
2018-06-29T07:40:49.835Z,8.47
2018-06-29T07:43:22.150Z,9.50
2018-06-29T07:45:54.239Z,10.10
2018-06-29T07:48:26.286Z,9.27
2018-06-29T07:50:58.371Z,9.83
2018-06-29T07:53:30.355Z,11.43
2018-06-29T07:56:02.383Z,11.17
2018-06-29T07:58:34.454Z,10.27
2018-06-29T08:01:06.510Z,10.37
2018-06-29T08:03:38.514Z,11.10
2018-06-29T08:06:10.507Z,10.57
2018-06-29T08:08:42.599Z,11.17
2018-06-29T08:11:14.668Z,11.23
2018-06-29T08:13:46.727Z,11.10
2018-06-29T08:16:18.772Z,10.20
2018-06-29T08:18:50.867Z,10.53
2018-06-29T08:21:22.932Z,10.03
2018-06-29T08:23:59.674Z,10.50
2018-06-29T08:26:31.659Z,9.70
2018-06-29T08:29:03.663Z,9.37
2018-06-29T08:31:35.683Z,10.30
2018-06-29T08:34:07.723Z,10.43
2018-06-29T08:36:39.726Z,10.37
2018-06-29T08:39:11.700Z,11.70
2018-06-29T08:41:43.696Z,10.27
2018-06-29T08:44:15.713Z,11.20
2018-06-29T08:46:47.704Z,9.67
2018-06-29T08:49:19.709Z,9.53
2018-06-29T08:51:51.803Z,9.30
2018-06-29T08:54:23.782Z,8.53
2018-06-29T08:56:55.818Z,9.43
2018-06-29T08:59:27.856Z,9.77
2018-06-29T09:01:59.904Z,8.57
2018-06-29T09:04:32.009Z,7.93
2018-06-29T09:07:04.049Z,8.53
2018-06-29T09:09:36.141Z,8.70
2018-06-29T09:12:08.211Z,9.30
2018-06-29T09:14:40.170Z,9.63
2018-06-29T09:17:12.174Z,9.80
2018-06-29T09:19:44.155Z,9.80
2018-06-29T09:22:16.184Z,8.90
2018-06-29T09:24:48.177Z,9.90
2018-06-29T09:27:20.175Z,9.20
2018-06-29T09:29:52.171Z,10.87
2018-06-29T09:32:24.135Z,10.97
2018-06-29T09:34:56.141Z,9.60
2018-06-29T09:37:28.182Z,10.30
2018-06-29T09:40:00.184Z,11.00
2018-06-29T09:42:32.234Z,9.50
2018-06-29T09:45:04.255Z,10.23
2018-06-29T09:47:36.254Z,10.57
2018-06-29T09:50:08.276Z,10.37
2018-06-29T09:52:40.255Z,9.40
2018-06-29T09:55:12.224Z,9.23
2018-06-29T09:57:44.219Z,9.07
2018-06-29T10:00:20.791Z,9.00
2018-06-29T10:02:52.802Z,10.10
2018-06-29T10:05:25.297Z,9.70
2018-06-29T10:07:57.302Z,15.53
2018-06-29T10:10:29.302Z,9.33
2018-06-29T10:13:01.486Z,9.53
2018-06-29T10:15:33.476Z,9.57
2018-06-29T10:18:05.518Z,8.60
2018-06-29T10:20:37.535Z,8.23
2018-06-29T10:23:09.546Z,9.03
2018-06-29T10:25:41.577Z,8.47
2018-06-29T10:28:13.629Z,8.93
2018-06-29T10:30:45.627Z,7.90
2018-06-29T10:33:17.660Z,8.20
2018-06-29T10:35:49.656Z,8.93
2018-06-29T10:38:21.692Z,8.53
2018-06-29T10:40:53.767Z,10.37
2018-06-29T10:43:25.758Z,8.00
2018-06-29T10:45:57.799Z,9.13
2018-06-29T10:48:29.804Z,8.93
2018-06-29T10:51:01.800Z,8.60
2018-06-29T10:53:33.795Z,9.87
2018-06-29T10:56:05.766Z,9.03
2018-06-29T10:58:38.059Z,8.53
2018-06-29T11:01:10.067Z,8.40
2018-06-29T11:03:42.161Z,10.30
2018-06-29T11:06:14.184Z,8.30
2018-06-29T11:08:46.164Z,9.00
2018-06-29T11:11:18.199Z,8.37
2018-06-29T11:13:50.196Z,8.23
2018-06-29T11:16:22.192Z,8.10
2018-06-29T11:18:54.181Z,7.47
2018-06-29T11:21:26.138Z,8.27
2018-06-29T11:23:58.148Z,8.70
2018-06-29T11:26:30.204Z,9.30
2018-06-29T11:29:02.214Z,8.40
2018-06-29T11:31:34.180Z,7.00
2018-06-29T11:34:06.539Z,7.70
2018-06-29T11:36:38.524Z,7.07
2018-06-29T11:39:12.535Z,7.70
2018-06-29T11:41:44.552Z,6.77
2018-06-29T11:44:16.603Z,6.13
2018-06-29T11:46:48.539Z,6.57
2018-06-29T11:49:20.523Z,7.63
2018-06-29T11:51:52.523Z,7.60
2018-06-29T11:54:24.527Z,7.53
2018-06-29T11:56:56.524Z,7.43
2018-06-29T11:59:28.563Z,7.40
2018-06-29T12:02:00.559Z,8.17
2018-06-29T12:04:32.648Z,8.80
2018-06-29T12:07:04.726Z,8.43
2018-06-29T12:09:36.671Z,6.87
2018-06-29T12:12:08.752Z,6.80
2018-06-29T12:14:40.794Z,6.87
2018-06-29T12:17:12.846Z,6.90
2018-06-29T12:19:44.939Z,8.43
2018-06-29T12:22:16.968Z,8.00
2018-06-29T12:24:48.947Z,6.90
2018-06-29T12:27:20.928Z,7.40
2018-06-29T12:29:52.914Z,6.30
2018-06-29T12:32:24.901Z,6.90
2018-06-29T12:34:56.971Z,6.67
2018-06-29T12:37:29.547Z,6.57
2018-06-29T12:40:01.626Z,6.43
2018-06-29T12:42:33.667Z,6.50
2018-06-29T12:45:05.723Z,6.23
2018-06-29T12:47:37.882Z,5.97
2018-06-29T12:50:09.908Z,6.07
2018-06-29T12:52:41.889Z,5.90
2018-06-29T12:55:13.971Z,5.87
2018-06-29T12:57:45.989Z,5.90
2018-06-29T13:00:17.939Z,5.23
2018-06-29T13:02:49.899Z,5.90
2018-06-29T13:05:21.887Z,6.17
2018-06-29T13:07:53.851Z,6.13
2018-06-29T13:10:25.843Z,6.23
2018-06-29T13:12:57.824Z,6.40
2018-06-29T13:15:29.811Z,6.50
2018-06-29T13:18:01.803Z,5.90
2018-06-29T13:20:33.779Z,6.10
2018-06-29T13:23:05.778Z,5.77
2018-06-29T13:25:37.755Z,5.20
2018-06-29T13:28:09.892Z,4.20
2018-06-29T13:30:41.950Z,7.53
2018-06-29T13:33:13.935Z,4.20
2018-06-29T13:35:45.962Z,4.90
2018-06-29T13:38:17.947Z,11.57
2018-06-29T13:40:49.942Z,4.60
2018-06-29T13:43:21.992Z,5.87
2018-06-29T13:45:53.986Z,4.53
2018-06-29T13:48:25.979Z,4.70
2018-06-29T13:50:57.991Z,4.67
2018-06-29T13:53:30.149Z,5.10
2018-06-29T13:56:02.162Z,4.77
2018-06-29T13:58:34.178Z,4.73
2018-06-29T14:01:06.195Z,4.43
2018-06-29T14:03:38.184Z,4.67
2018-06-29T14:06:10.193Z,5.43
2018-06-29T14:08:42.206Z,5.73
2018-06-29T14:11:14.228Z,5.40
2018-06-29T14:13:46.299Z,4.43
2018-06-29T14:16:18.290Z,5.00
2018-06-29T14:18:50.270Z,5.00
2018-06-29T14:21:22.275Z,4.77
2018-06-29T14:23:54.744Z,4.53
2018-06-29T14:26:26.719Z,4.40
2018-06-29T14:28:58.757Z,4.40
2018-06-29T14:31:37.400Z,4.37
2018-06-29T14:34:09.419Z,4.93
2018-06-29T14:36:41.431Z,5.60
2018-06-29T14:39:13.439Z,5.80
2018-06-29T14:41:45.476Z,5.27
2018-06-29T14:44:17.466Z,5.30
2018-06-29T14:46:49.516Z,4.93
2018-06-29T14:50:46.139Z,5.57
2018-06-29T14:53:18.210Z,5.70
2018-06-29T14:55:50.518Z,5.13
2018-06-29T14:58:22.564Z,4.70
2018-06-29T15:00:54.621Z,5.00
2018-06-29T15:03:26.680Z,4.57
2018-06-29T15:05:58.722Z,5.13
2018-06-29T15:08:30.747Z,4.93
2018-06-29T15:11:02.791Z,5.40
2018-06-29T15:13:34.776Z,5.10
2018-06-29T15:16:06.820Z,5.17
2018-06-29T15:18:38.835Z,5.60
2018-06-29T15:21:10.882Z,5.27
2018-06-29T15:23:43.075Z,5.57
2018-06-29T15:26:15.476Z,5.13
2018-06-29T15:31:45.565Z,5.27
2018-06-29T15:34:17.684Z,6.30
2018-06-29T15:36:49.803Z,5.10
2018-06-29T15:39:21.932Z,5.53
2018-06-29T15:41:54.074Z,5.77
2018-06-29T15:44:26.192Z,5.40
2018-06-29T15:46:58.285Z,6.00
2018-06-29T15:49:30.388Z,5.30
2018-06-29T15:52:03.191Z,4.90
2018-06-29T15:54:35.351Z,6.37
2018-06-29T15:57:07.491Z,5.17
2018-06-29T15:59:40.824Z,5.10
2018-06-29T16:02:13.059Z,5.00
2018-06-29T16:04:45.124Z,5.03
2018-06-29T16:07:17.234Z,5.30
2018-06-29T16:09:49.355Z,5.30
2018-06-29T16:12:21.410Z,5.50
2018-06-29T16:14:53.591Z,5.10
2018-06-29T16:17:25.737Z,5.83
2018-06-29T16:19:57.861Z,4.40
2018-06-29T16:22:30.011Z,6.07
2018-06-29T16:25:02.132Z,6.73
2018-06-29T16:27:34.234Z,4.63
2018-06-29T16:30:07.047Z,4.50
2018-06-29T16:32:39.168Z,4.77
2018-06-29T16:35:11.464Z,4.93
2018-06-29T16:37:43.576Z,5.17
2018-06-29T16:40:15.624Z,4.43
2018-06-29T16:42:47.681Z,4.70
2018-06-29T16:45:19.764Z,4.67
2018-06-29T16:47:51.890Z,4.47
2018-06-29T16:50:24.039Z,4.73
2018-06-29T16:52:56.102Z,5.37
2018-06-29T16:55:28.189Z,4.80
2018-06-29T16:58:00.349Z,5.00
2018-06-29T17:00:32.692Z,4.97
2018-06-29T17:03:04.995Z,5.23
2018-06-29T17:05:37.148Z,4.63
2018-06-29T17:08:09.252Z,4.90
2018-06-29T17:10:41.352Z,5.03
2018-06-29T17:13:14.272Z,5.13
2018-06-29T17:15:46.448Z,7.80
2018-06-29T17:18:18.609Z,4.83
2018-06-29T17:20:50.806Z,4.80
2018-06-29T17:23:22.871Z,4.63
2018-06-29T17:25:55.056Z,5.40
2018-06-29T17:28:27.182Z,5.67
2018-06-29T17:31:00.273Z,5.20
2018-06-29T17:33:32.455Z,5.93
2018-06-29T17:36:04.732Z,5.53
2018-06-29T17:38:36.810Z,6.23
2018-06-29T17:41:08.920Z,5.00
2018-06-29T17:43:40.993Z,5.50
2018-06-29T17:46:13.128Z,5.50
2018-06-29T17:48:45.273Z,5.40
2018-06-29T17:51:17.396Z,6.27
2018-06-29T17:53:49.511Z,6.67
2018-06-29T17:56:21.534Z,6.70
2018-06-29T17:58:53.624Z,9.40
2018-06-29T18:01:25.728Z,5.80
2018-06-29T18:03:57.815Z,6.67
2018-06-29T18:06:29.968Z,6.53
2018-06-29T18:09:02.255Z,6.60
2018-06-29T18:11:34.416Z,6.20
2018-06-29T18:14:06.577Z,6.20
2018-06-29T18:16:39.695Z,6.10
2018-06-29T18:19:11.831Z,6.37
2018-06-29T18:21:43.902Z,6.20
2018-06-29T18:24:16.024Z,6.40
2018-06-29T18:26:48.195Z,5.83
2018-06-29T18:29:20.329Z,6.60
2018-06-29T18:31:52.495Z,7.90
2018-06-29T18:34:24.615Z,6.13
2018-06-29T18:36:56.754Z,6.93
2018-06-29T18:39:28.880Z,10.17
2018-06-29T18:42:01.075Z,6.93
2018-06-29T18:44:33.149Z,7.10
2018-06-29T18:47:05.357Z,6.67
2018-06-29T18:49:37.466Z,6.73
2018-06-29T18:52:09.555Z,6.70
2018-06-29T18:54:41.680Z,6.60
2018-06-29T18:57:13.780Z,7.57
2018-06-29T18:59:45.908Z,6.43
2018-06-29T19:02:17.991Z,6.77
2018-06-29T19:04:50.054Z,6.93
2018-06-29T19:07:22.151Z,7.00
2018-06-29T19:09:54.243Z,7.40
2018-06-29T19:12:26.311Z,7.03
2018-06-29T19:14:58.437Z,6.97
2018-06-29T19:17:30.592Z,6.97
2018-06-29T19:20:02.769Z,7.17
2018-06-29T19:22:34.879Z,7.50
2018-06-29T19:25:07.081Z,8.00
2018-06-29T19:27:39.155Z,7.30
2018-06-29T19:30:11.296Z,8.87
2018-06-29T19:32:43.393Z,7.23
2018-06-29T19:35:15.480Z,7.90
2018-06-29T19:37:47.864Z,7.40
2018-06-29T19:40:19.948Z,6.87
2018-06-29T19:42:52.097Z,7.77
2018-06-29T19:45:24.248Z,8.40
2018-06-29T19:47:56.544Z,8.47
2018-06-29T19:50:28.659Z,7.80
2018-06-29T19:53:00.759Z,8.03
2018-06-29T19:55:32.935Z,9.17
2018-06-29T19:58:05.096Z,9.10
2018-06-29T20:00:37.205Z,8.87
2018-06-29T20:03:09.295Z,8.87
2018-06-29T20:05:41.416Z,9.30
2018-06-29T20:08:13.483Z,9.70
2018-06-29T20:10:45.625Z,8.10
2018-06-29T20:13:17.717Z,8.93
2018-06-29T20:15:49.917Z,9.27
2018-06-29T20:18:21.997Z,10.03
2018-06-29T20:20:54.136Z,9.50
2018-06-29T20:23:26.206Z,9.60
2018-06-29T20:25:58.332Z,10.27
2018-06-29T20:28:30.380Z,9.83
2018-06-29T20:31:02.502Z,10.23
2018-06-29T20:33:34.562Z,9.50
2018-06-29T20:36:06.658Z,10.50
2018-06-29T20:38:38.795Z,9.70
2018-06-29T20:41:10.808Z,11.70
2018-06-29T20:43:42.979Z,10.70
2018-06-29T20:46:15.088Z,11.03
2018-06-29T20:48:47.180Z,10.67
2018-06-29T20:51:19.296Z,10.63
2018-06-29T20:53:51.436Z,10.97
2018-06-29T20:56:23.592Z,10.47
2018-06-29T20:58:55.712Z,10.17
2018-06-29T21:01:27.780Z,9.97
2018-06-29T21:03:59.891Z,10.40
2018-06-29T21:06:32.042Z,11.37
2018-06-29T21:09:06.745Z,10.80
2018-06-29T21:11:39.274Z,10.87
2018-06-29T21:14:11.853Z,11.13
2018-06-29T21:16:44.023Z,13.90
2018-06-29T21:19:16.164Z,11.77
2018-06-29T21:21:48.412Z,11.03
2018-06-29T21:24:20.479Z,11.60
2018-06-29T21:26:52.555Z,12.73
2018-06-29T21:29:24.653Z,11.60
2018-06-29T21:31:57.466Z,12.17
2018-06-29T21:34:29.575Z,12.43
2018-06-29T21:37:01.737Z,11.10
2018-06-29T21:39:33.836Z,11.93
2018-06-29T21:42:05.899Z,11.87
2018-06-29T21:44:38.040Z,12.03
2018-06-29T21:47:10.137Z,11.83
2018-06-29T21:49:42.248Z,10.73
2018-06-29T21:52:14.415Z,11.90
2018-06-29T21:54:46.533Z,12.40
2018-06-29T21:57:18.665Z,11.87
2018-06-29T21:59:50.839Z,11.20
2018-06-29T22:02:22.923Z,12.37
2018-06-29T22:04:55.072Z,12.37
2018-06-29T22:07:27.093Z,11.50
2018-06-29T22:09:59.187Z,11.67
2018-06-29T22:12:31.280Z,11.13
2018-06-29T22:15:03.439Z,13.03
2018-06-29T22:17:35.536Z,12.50
2018-06-29T22:20:07.637Z,13.17
2018-06-29T22:22:39.777Z,13.27
2018-06-29T22:25:11.883Z,13.07
2018-06-29T22:27:44.024Z,13.33
2018-06-29T22:30:16.740Z,13.50
2018-06-29T22:32:48.951Z,12.63
2018-06-29T22:35:21.680Z,12.80
2018-06-29T22:37:53.935Z,12.37
2018-06-29T22:40:26.018Z,13.00
2018-06-29T22:42:58.155Z,13.10
2018-06-29T22:45:30.263Z,13.33
2018-06-29T22:48:02.426Z,13.00
2018-06-29T22:50:34.579Z,13.80
2018-06-29T22:53:06.726Z,13.23
2018-06-29T22:55:38.830Z,12.63
2018-06-29T22:58:10.959Z,12.80
2018-06-29T23:00:43.048Z,14.13
2018-06-29T23:03:15.180Z,14.40
2018-06-29T23:05:47.293Z,13.17
2018-06-29T23:08:19.467Z,13.67
2018-06-29T23:10:51.633Z,14.70
2018-06-29T23:13:23.781Z,13.43
2018-06-29T23:15:55.943Z,12.70
2018-06-29T23:18:28.111Z,12.80
2018-06-29T23:21:00.192Z,12.73
2018-06-29T23:23:32.304Z,14.23
2018-06-29T23:26:04.445Z,13.47
2018-06-29T23:28:36.746Z,14.27
2018-06-29T23:31:08.823Z,13.13
2018-06-29T23:33:40.916Z,13.87
2018-06-29T23:36:13.001Z,14.47
2018-06-29T23:38:45.092Z,13.50
2018-06-29T23:41:17.179Z,13.33
2018-06-29T23:43:49.302Z,13.70
2018-06-29T23:46:21.419Z,12.97
2018-06-29T23:48:53.542Z,14.23
2018-06-29T23:51:25.651Z,14.43
2018-06-29T23:53:57.872Z,13.17
2018-06-29T23:56:29.990Z,12.97
2018-06-29T23:59:02.119Z,13.80
